sensor_id;sensor_type;location;lat;lon;timestamp;P1;durP1;ratioP1;P2;durP2;ratioP2
30571;SDS011;17348;50.948;10.696;2023-04-03T00:00:58;5.27;;;1.73;;
30571;SDS011;17348;50.948;10.696;2023-04-03T00:04:00;11.10;;;1.80;;
30571;SDS011;17348;50.948;10.696;2023-04-03T00:07:03;9.53;;;1.63;;
30571;SDS011;17348;50.948;10.696;2023-04-03T00:10:05;6.53;;;1.70;;
30571;SDS011;17348;50.948;10.696;2023-04-03T00:13:10;7.00;;;1.27;;
30571;SDS011;17348;50.948;10.696;2023-04-03T00:16:12;5.30;;;1.40;;
30571;SDS011;17348;50.948;10.696;2023-04-03T00:19:15;3.03;;;1.57;;
30571;SDS011;17348;50.948;10.696;2023-04-03T00:22:17;9.63;;;1.73;;
30571;SDS011;17348;50.948;10.696;2023-04-03T00:25:20;4.60;;;1.00;;
30571;SDS011;17348;50.948;10.696;2023-04-03T00:28:26;4.97;;;1.43;;
30571;SDS011;17348;50.948;10.696;2023-04-03T00:31:31;3.40;;;1.17;;
30571;SDS011;17348;50.948;10.696;2023-04-03T00:34:33;7.23;;;2.00;;
30571;SDS011;17348;50.948;10.696;2023-04-03T00:37:35;2.90;;;1.73;;
30571;SDS011;17348;50.948;10.696;2023-04-03T00:40:39;6.17;;;1.67;;
30571;SDS011;17348;50.948;10.696;2023-04-03T00:43:46;3.97;;;1.30;;
30571;SDS011;17348;50.948;10.696;2023-04-03T00:46:48;2.67;;;1.27;;
30571;SDS011;17348;50.948;10.696;2023-04-03T00:49:51;8.07;;;1.60;;
30571;SDS011;17348;50.948;10.696;2023-04-03T00:52:55;4.30;;;1.50;;
30571;SDS011;17348;50.948;10.696;2023-04-03T00:55:59;4.40;;;1.57;;
30571;SDS011;17348;50.948;10.696;2023-04-03T00:59:04;13.77;;;1.40;;
30571;SDS011;17348;50.948;10.696;2023-04-03T01:02:10;14.97;;;2.17;;
30571;SDS011;17348;50.948;10.696;2023-04-03T01:05:12;4.77;;;1.43;;
30571;SDS011;17348;50.948;10.696;2023-04-03T01:08:16;5.80;;;1.53;;
30571;SDS011;17348;50.948;10.696;2023-04-03T01:11:19;9.93;;;1.63;;
30571;SDS011;17348;50.948;10.696;2023-04-03T01:14:23;12.70;;;2.37;;
30571;SDS011;17348;50.948;10.696;2023-04-03T01:17:29;5.77;;;1.57;;
30571;SDS011;17348;50.948;10.696;2023-04-03T01:24:22;3.03;;;1.50;;
30571;SDS011;17348;50.948;10.696;2023-04-03T01:27:32;6.23;;;1.83;;
30571;SDS011;17348;50.948;10.696;2023-04-03T01:30:36;9.30;;;1.60;;
30571;SDS011;17348;50.948;10.696;2023-04-03T01:33:46;9.30;;;2.30;;
30571;SDS011;17348;50.948;10.696;2023-04-03T01:36:48;6.10;;;1.70;;
30571;SDS011;17348;50.948;10.696;2023-04-03T01:39:51;10.77;;;1.73;;
30571;SDS011;17348;50.948;10.696;2023-04-03T01:42:53;6.73;;;2.17;;
30571;SDS011;17348;50.948;10.696;2023-04-03T01:45:55;14.47;;;2.30;;
30571;SDS011;17348;50.948;10.696;2023-04-03T01:48:59;8.77;;;1.63;;
30571;SDS011;17348;50.948;10.696;2023-04-03T01:52:02;7.37;;;2.33;;
30571;SDS011;17348;50.948;10.696;2023-04-03T01:55:04;10.97;;;1.67;;
30571;SDS011;17348;50.948;10.696;2023-04-03T01:58:07;8.30;;;1.87;;
30571;SDS011;17348;50.948;10.696;2023-04-03T02:01:10;6.40;;;2.30;;
30571;SDS011;17348;50.948;10.696;2023-04-03T02:04:13;13.80;;;2.87;;
30571;SDS011;17348;50.948;10.696;2023-04-03T02:07:16;11.37;;;3.57;;
30571;SDS011;17348;50.948;10.696;2023-04-03T02:10:18;9.37;;;2.40;;
30571;SDS011;17348;50.948;10.696;2023-04-03T02:13:20;8.20;;;2.50;;
30571;SDS011;17348;50.948;10.696;2023-04-03T02:16:26;20.43;;;2.53;;
30571;SDS011;17348;50.948;10.696;2023-04-03T02:19:30;8.80;;;2.97;;
30571;SDS011;17348;50.948;10.696;2023-04-03T02:22:32;8.73;;;1.80;;
30571;SDS011;17348;50.948;10.696;2023-04-03T02:25:35;5.93;;;2.40;;
30571;SDS011;17348;50.948;10.696;2023-04-03T02:28:38;12.37;;;2.27;;
30571;SDS011;17348;50.948;10.696;2023-04-03T02:31:41;13.30;;;1.97;;
30571;SDS011;17348;50.948;10.696;2023-04-03T02:34:47;6.63;;;2.27;;
30571;SDS011;17348;50.948;10.696;2023-04-03T02:37:50;7.07;;;1.53;;
30571;SDS011;17348;50.948;10.696;2023-04-03T02:40:52;12.77;;;2.40;;
30571;SDS011;17348;50.948;10.696;2023-04-03T02:43:54;5.57;;;2.10;;
30571;SDS011;17348;50.948;10.696;2023-04-03T02:46:57;11.70;;;2.60;;
30571;SDS011;17348;50.948;10.696;2023-04-03T02:50:00;8.23;;;2.27;;
30571;SDS011;17348;50.948;10.696;2023-04-03T02:53:03;10.13;;;2.63;;
30571;SDS011;17348;50.948;10.696;2023-04-03T02:56:06;10.37;;;2.93;;
30571;SDS011;17348;50.948;10.696;2023-04-03T02:59:08;4.27;;;1.30;;
30571;SDS011;17348;50.948;10.696;2023-04-03T03:02:10;10.60;;;2.27;;
30571;SDS011;17348;50.948;10.696;2023-04-03T03:05:15;8.57;;;2.73;;
30571;SDS011;17348;50.948;10.696;2023-04-03T03:08:17;8.83;;;2.63;;
30571;SDS011;17348;50.948;10.696;2023-04-03T03:11:20;15.10;;;2.87;;
30571;SDS011;17348;50.948;10.696;2023-04-03T03:14:23;8.00;;;2.37;;
30571;SDS011;17348;50.948;10.696;2023-04-03T03:17:25;8.80;;;3.10;;
30571;SDS011;17348;50.948;10.696;2023-04-03T03:20:29;12.77;;;2.80;;
30571;SDS011;17348;50.948;10.696;2023-04-03T03:23:32;10.03;;;2.57;;
30571;SDS011;17348;50.948;10.696;2023-04-03T03:26:34;10.10;;;2.87;;
30571;SDS011;17348;50.948;10.696;2023-04-03T03:29:37;14.07;;;2.83;;
30571;SDS011;17348;50.948;10.696;2023-04-03T03:32:39;11.47;;;4.23;;
30571;SDS011;17348;50.948;10.696;2023-04-03T03:35:43;12.47;;;4.50;;
30571;SDS011;17348;50.948;10.696;2023-04-03T03:38:45;11.73;;;2.67;;
30571;SDS011;17348;50.948;10.696;2023-04-03T03:41:48;11.83;;;2.37;;
30571;SDS011;17348;50.948;10.696;2023-04-03T03:44:51;11.27;;;2.90;;
30571;SDS011;17348;50.948;10.696;2023-04-03T03:47:53;14.50;;;2.80;;
30571;SDS011;17348;50.948;10.696;2023-04-03T03:50:57;12.77;;;2.87;;
30571;SDS011;17348;50.948;10.696;2023-04-03T03:53:59;8.53;;;2.30;;
30571;SDS011;17348;50.948;10.696;2023-04-03T03:57:01;11.47;;;2.87;;
30571;SDS011;17348;50.948;10.696;2023-04-03T04:00:05;9.50;;;2.97;;
30571;SDS011;17348;50.948;10.696;2023-04-03T04:03:09;12.90;;;3.07;;
30571;SDS011;17348;50.948;10.696;2023-04-03T04:06:12;8.30;;;2.53;;
30571;SDS011;17348;50.948;10.696;2023-04-03T04:09:15;14.47;;;3.43;;
30571;SDS011;17348;50.948;10.696;2023-04-03T04:12:17;7.70;;;2.97;;
30571;SDS011;17348;50.948;10.696;2023-04-03T04:15:20;11.30;;;3.57;;
30571;SDS011;17348;50.948;10.696;2023-04-03T04:18:23;4.37;;;2.47;;
30571;SDS011;17348;50.948;10.696;2023-04-03T04:21:27;10.30;;;3.83;;
30571;SDS011;17348;50.948;10.696;2023-04-03T04:24:29;10.77;;;3.57;;
30571;SDS011;17348;50.948;10.696;2023-04-03T04:27:31;9.17;;;3.57;;
30571;SDS011;17348;50.948;10.696;2023-04-03T04:30:34;8.83;;;3.43;;
30571;SDS011;17348;50.948;10.696;2023-04-03T04:33:36;13.80;;;3.80;;
30571;SDS011;17348;50.948;10.696;2023-04-03T04:36:40;12.60;;;3.13;;
30571;SDS011;17348;50.948;10.696;2023-04-03T04:39:42;10.80;;;3.17;;
30571;SDS011;17348;50.948;10.696;2023-04-03T04:42:45;13.37;;;3.80;;
30571;SDS011;17348;50.948;10.696;2023-04-03T04:45:47;12.20;;;3.60;;
30571;SDS011;17348;50.948;10.696;2023-04-03T04:48:49;13.20;;;3.10;;
30571;SDS011;17348;50.948;10.696;2023-04-03T04:51:53;11.83;;;3.20;;
30571;SDS011;17348;50.948;10.696;2023-04-03T04:54:55;16.10;;;4.33;;
30571;SDS011;17348;50.948;10.696;2023-04-03T04:57:58;6.17;;;3.33;;
30571;SDS011;17348;50.948;10.696;2023-04-03T05:01:00;7.20;;;3.40;;
30571;SDS011;17348;50.948;10.696;2023-04-03T05:04:03;10.10;;;3.53;;
30571;SDS011;17348;50.948;10.696;2023-04-03T05:07:07;7.50;;;3.47;;
30571;SDS011;17348;50.948;10.696;2023-04-03T05:10:09;15.23;;;3.63;;
30571;SDS011;17348;50.948;10.696;2023-04-03T05:13:13;12.67;;;3.97;;
30571;SDS011;17348;50.948;10.696;2023-04-03T05:16:16;10.17;;;3.77;;
30571;SDS011;17348;50.948;10.696;2023-04-03T05:19:18;13.90;;;3.67;;
30571;SDS011;17348;50.948;10.696;2023-04-03T05:22:22;11.03;;;4.40;;
30571;SDS011;17348;50.948;10.696;2023-04-03T05:25:25;21.60;;;3.83;;
30571;SDS011;17348;50.948;10.696;2023-04-03T05:28:27;9.17;;;3.67;;
30571;SDS011;17348;50.948;10.696;2023-04-03T05:31:30;11.57;;;3.70;;
30571;SDS011;17348;50.948;10.696;2023-04-03T05:34:32;14.10;;;4.07;;
30571;SDS011;17348;50.948;10.696;2023-04-03T05:37:36;11.17;;;4.57;;
30571;SDS011;17348;50.948;10.696;2023-04-03T05:40:39;13.13;;;4.23;;
30571;SDS011;17348;50.948;10.696;2023-04-03T05:43:41;13.27;;;3.63;;
30571;SDS011;17348;50.948;10.696;2023-04-03T05:46:44;9.33;;;3.43;;
30571;SDS011;17348;50.948;10.696;2023-04-03T05:49:46;11.10;;;3.83;;
30571;SDS011;17348;50.948;10.696;2023-04-03T05:52:50;10.73;;;3.40;;
30571;SDS011;17348;50.948;10.696;2023-04-03T05:55:55;9.60;;;3.90;;
30571;SDS011;17348;50.948;10.696;2023-04-03T05:58:59;10.03;;;4.67;;
30571;SDS011;17348;50.948;10.696;2023-04-03T06:02:01;8.67;;;3.60;;
30571;SDS011;17348;50.948;10.696;2023-04-03T06:05:04;21.53;;;3.93;;
30571;SDS011;17348;50.948;10.696;2023-04-03T06:08:09;8.63;;;3.93;;
30571;SDS011;17348;50.948;10.696;2023-04-03T06:11:11;9.37;;;3.77;;
30571;SDS011;17348;50.948;10.696;2023-04-03T06:14:13;13.10;;;3.57;;
30571;SDS011;17348;50.948;10.696;2023-04-03T06:17:16;8.37;;;3.63;;
30571;SDS011;17348;50.948;10.696;2023-04-03T06:20:19;11.57;;;4.30;;
30571;SDS011;17348;50.948;10.696;2023-04-03T06:23:24;8.93;;;3.23;;
30571;SDS011;17348;50.948;10.696;2023-04-03T06:26:26;9.63;;;4.20;;
30571;SDS011;17348;50.948;10.696;2023-04-03T06:29:29;11.53;;;4.17;;
30571;SDS011;17348;50.948;10.696;2023-04-03T06:32:31;8.43;;;3.10;;
30571;SDS011;17348;50.948;10.696;2023-04-03T06:35:34;12.20;;;4.17;;
30571;SDS011;17348;50.948;10.696;2023-04-03T06:38:38;9.40;;;3.90;;
30571;SDS011;17348;50.948;10.696;2023-04-03T06:41:40;5.73;;;3.70;;
30571;SDS011;17348;50.948;10.696;2023-04-03T06:44:43;8.37;;;4.10;;
30571;SDS011;17348;50.948;10.696;2023-04-03T06:47:45;13.50;;;4.03;;
30571;SDS011;17348;50.948;10.696;2023-04-03T06:50:48;12.17;;;4.20;;
30571;SDS011;17348;50.948;10.696;2023-04-03T06:53:52;20.63;;;5.23;;
30571;SDS011;17348;50.948;10.696;2023-04-03T06:56:56;10.43;;;4.03;;
30571;SDS011;17348;50.948;10.696;2023-04-03T06:59:59;10.70;;;4.40;;
30571;SDS011;17348;50.948;10.696;2023-04-03T07:03:01;8.40;;;3.30;;
30571;SDS011;17348;50.948;10.696;2023-04-03T07:06:03;8.90;;;3.90;;
30571;SDS011;17348;50.948;10.696;2023-04-03T07:09:08;8.70;;;3.73;;
30571;SDS011;17348;50.948;10.696;2023-04-03T07:12:11;17.43;;;3.50;;
30571;SDS011;17348;50.948;10.696;2023-04-03T07:15:13;11.30;;;2.93;;
30571;SDS011;17348;50.948;10.696;2023-04-03T07:18:16;14.57;;;3.73;;
30571;SDS011;17348;50.948;10.696;2023-04-03T07:21:18;10.30;;;3.00;;
30571;SDS011;17348;50.948;10.696;2023-04-03T07:24:22;11.97;;;3.73;;
30571;SDS011;17348;50.948;10.696;2023-04-03T07:27:25;10.57;;;2.50;;
30571;SDS011;17348;50.948;10.696;2023-04-03T07:30:27;11.17;;;3.27;;
30571;SDS011;17348;50.948;10.696;2023-04-03T07:33:32;10.77;;;2.90;;
30571;SDS011;17348;50.948;10.696;2023-04-03T07:36:36;11.30;;;2.77;;
30571;SDS011;17348;50.948;10.696;2023-04-03T07:39:40;7.93;;;2.77;;
30571;SDS011;17348;50.948;10.696;2023-04-03T07:42:45;5.33;;;2.40;;
30571;SDS011;17348;50.948;10.696;2023-04-03T07:45:48;14.50;;;2.53;;
30571;SDS011;17348;50.948;10.696;2023-04-03T07:48:51;12.20;;;3.27;;
30571;SDS011;17348;50.948;10.696;2023-04-03T07:51:53;20.17;;;3.10;;
30571;SDS011;17348;50.948;10.696;2023-04-03T07:54:57;20.53;;;4.00;;
30571;SDS011;17348;50.948;10.696;2023-04-03T07:57:59;16.83;;;4.27;;
30571;SDS011;17348;50.948;10.696;2023-04-03T08:01:02;20.70;;;4.20;;
30571;SDS011;17348;50.948;10.696;2023-04-03T08:04:05;9.47;;;4.33;;
30571;SDS011;17348;50.948;10.696;2023-04-03T08:07:07;14.73;;;5.47;;
30571;SDS011;17348;50.948;10.696;2023-04-03T08:10:11;11.63;;;3.97;;
30571;SDS011;17348;50.948;10.696;2023-04-03T08:13:14;12.27;;;3.90;;
30571;SDS011;17348;50.948;10.696;2023-04-03T08:16:17;10.60;;;2.33;;
30571;SDS011;17348;50.948;10.696;2023-04-03T08:19:22;5.50;;;1.67;;
30571;SDS011;17348;50.948;10.696;2023-04-03T08:22:24;9.97;;;2.27;;
30571;SDS011;17348;50.948;10.696;2023-04-03T08:25:28;4.90;;;1.60;;
30571;SDS011;17348;50.948;10.696;2023-04-03T08:28:31;7.67;;;1.70;;
30571;SDS011;17348;50.948;10.696;2023-04-03T08:31:33;4.27;;;1.13;;
30571;SDS011;17348;50.948;10.696;2023-04-03T08:34:36;6.07;;;1.20;;
30571;SDS011;17348;50.948;10.696;2023-04-03T08:37:40;12.57;;;1.57;;
30571;SDS011;17348;50.948;10.696;2023-04-03T08:40:44;2.37;;;1.00;;
30571;SDS011;17348;50.948;10.696;2023-04-03T08:43:52;2.20;;;1.00;;
30571;SDS011;17348;50.948;10.696;2023-04-03T08:47:15;5.43;;;1.03;;
30571;SDS011;17348;50.948;10.696;2023-04-03T08:50:26;2.00;;;1.00;;
30571;SDS011;17348;50.948;10.696;2023-04-03T08:53:33;4.53;;;1.23;;
30571;SDS011;17348;50.948;10.696;2023-04-03T08:56:39;6.47;;;1.07;;
30571;SDS011;17348;50.948;10.696;2023-04-03T08:59:42;1.93;;;1.00;;
30571;SDS011;17348;50.948;10.696;2023-04-03T09:02:45;5.13;;;1.47;;
30571;SDS011;17348;50.948;10.696;2023-04-03T09:05:50;5.80;;;1.50;;
30571;SDS011;17348;50.948;10.696;2023-04-03T09:09:00;3.30;;;1.80;;
30571;SDS011;17348;50.948;10.696;2023-04-03T09:12:15;14.67;;;2.20;;
30571;SDS011;17348;50.948;10.696;2023-04-03T09:15:22;4.60;;;1.10;;
30571;SDS011;17348;50.948;10.696;2023-04-03T09:18:26;2.03;;;1.00;;
30571;SDS011;17348;50.948;10.696;2023-04-03T09:21:34;3.93;;;1.07;;
30571;SDS011;17348;50.948;10.696;2023-04-03T09:24:39;3.60;;;0.73;;
30571;SDS011;17348;50.948;10.696;2023-04-03T09:27:43;9.20;;;2.10;;
30571;SDS011;17348;50.948;10.696;2023-04-03T09:30:46;5.07;;;1.10;;
30571;SDS011;17348;50.948;10.696;2023-04-03T09:33:49;6.90;;;1.03;;
30571;SDS011;17348;50.948;10.696;2023-04-03T09:36:55;4.37;;;1.10;;
30571;SDS011;17348;50.948;10.696;2023-04-03T09:39:58;11.37;;;1.70;;
30571;SDS011;17348;50.948;10.696;2023-04-03T09:43:08;4.67;;;1.00;;
30571;SDS011;17348;50.948;10.696;2023-04-03T09:46:29;2.93;;;1.33;;
30571;SDS011;17348;50.948;10.696;2023-04-03T09:49:33;6.13;;;1.00;;
30571;SDS011;17348;50.948;10.696;2023-04-03T09:52:35;5.57;;;0.97;;
30571;SDS011;17348;50.948;10.696;2023-04-03T09:55:41;6.30;;;1.20;;
30571;SDS011;17348;50.948;10.696;2023-04-03T09:58:46;2.67;;;0.80;;
30571;SDS011;17348;50.948;10.696;2023-04-03T10:01:56;6.73;;;1.10;;
30571;SDS011;17348;50.948;10.696;2023-04-03T10:05:05;4.07;;;0.97;;
30571;SDS011;17348;50.948;10.696;2023-04-03T10:08:30;5.70;;;1.53;;
30571;SDS011;17348;50.948;10.696;2023-04-03T10:11:33;3.43;;;1.20;;
30571;SDS011;17348;50.948;10.696;2023-04-03T10:14:37;3.90;;;1.57;;
30571;SDS011;17348;50.948;10.696;2023-04-03T10:17:47;3.90;;;0.70;;
30571;SDS011;17348;50.948;10.696;2023-04-03T10:20:54;5.43;;;1.20;;
30571;SDS011;17348;50.948;10.696;2023-04-03T10:24:06;2.53;;;0.90;;
30571;SDS011;17348;50.948;10.696;2023-04-03T10:27:16;3.63;;;1.27;;
30571;SDS011;17348;50.948;10.696;2023-04-03T10:30:28;3.53;;;0.90;;
30571;SDS011;17348;50.948;10.696;2023-04-03T10:33:38;4.27;;;1.07;;
30571;SDS011;17348;50.948;10.696;2023-04-03T10:36:49;6.50;;;0.90;;
30571;SDS011;17348;50.948;10.696;2023-04-03T10:40:02;5.77;;;1.53;;
30571;SDS011;17348;50.948;10.696;2023-04-03T10:43:15;3.07;;;1.07;;
30571;SDS011;17348;50.948;10.696;2023-04-03T10:46:26;1.23;;;0.93;;
30571;SDS011;17348;50.948;10.696;2023-04-03T10:49:35;8.90;;;1.47;;
30571;SDS011;17348;50.948;10.696;2023-04-03T10:52:47;8.53;;;1.40;;
30571;SDS011;17348;50.948;10.696;2023-04-03T10:55:58;3.37;;;1.20;;
30571;SDS011;17348;50.948;10.696;2023-04-03T11:02:35;3.67;;;1.13;;
30571;SDS011;17348;50.948;10.696;2023-04-03T11:05:42;7.33;;;1.70;;
30571;SDS011;17348;50.948;10.696;2023-04-03T11:08:48;2.40;;;1.17;;
30571;SDS011;17348;50.948;10.696;2023-04-03T11:11:56;2.47;;;0.90;;
30571;SDS011;17348;50.948;10.696;2023-04-03T11:15:03;3.90;;;1.30;;
30571;SDS011;17348;50.948;10.696;2023-04-03T11:18:11;3.73;;;1.13;;
30571;SDS011;17348;50.948;10.696;2023-04-03T11:21:18;7.53;;;1.30;;
30571;SDS011;17348;50.948;10.696;2023-04-03T11:24:24;12.23;;;1.23;;
30571;SDS011;17348;50.948;10.696;2023-04-03T11:27:30;12.17;;;1.70;;
30571;SDS011;17348;50.948;10.696;2023-04-03T11:30:39;6.20;;;1.70;;
30571;SDS011;17348;50.948;10.696;2023-04-03T11:33:52;7.50;;;0.83;;
30571;SDS011;17348;50.948;10.696;2023-04-03T11:37:05;10.13;;;1.20;;
30571;SDS011;17348;50.948;10.696;2023-04-03T11:40:19;5.10;;;1.37;;
30571;SDS011;17348;50.948;10.696;2023-04-03T11:43:27;3.10;;;1.07;;
30571;SDS011;17348;50.948;10.696;2023-04-03T11:49:57;3.00;;;1.70;;
30571;SDS011;17348;50.948;10.696;2023-04-03T11:53:02;7.20;;;1.93;;
30571;SDS011;17348;50.948;10.696;2023-04-03T11:56:28;2.43;;;1.20;;
30571;SDS011;17348;50.948;10.696;2023-04-03T11:59:36;4.47;;;1.53;;
30571;SDS011;17348;50.948;10.696;2023-04-03T12:02:39;7.50;;;1.97;;
30571;SDS011;17348;50.948;10.696;2023-04-03T12:05:43;3.50;;;1.20;;
30571;SDS011;17348;50.948;10.696;2023-04-03T12:08:46;6.40;;;0.80;;
30571;SDS011;17348;50.948;10.696;2023-04-03T12:11:52;4.27;;;1.33;;
30571;SDS011;17348;50.948;10.696;2023-04-03T12:14:54;5.60;;;1.30;;
30571;SDS011;17348;50.948;10.696;2023-04-03T12:17:58;5.90;;;1.80;;
30571;SDS011;17348;50.948;10.696;2023-04-03T12:21:02;1.93;;;1.10;;
30571;SDS011;17348;50.948;10.696;2023-04-03T12:24:22;3.30;;;1.47;;
30571;SDS011;17348;50.948;10.696;2023-04-03T12:27:28;2.57;;;0.80;;
30571;SDS011;17348;50.948;10.696;2023-04-03T12:30:34;4.43;;;1.00;;
30571;SDS011;17348;50.948;10.696;2023-04-03T12:33:51;5.57;;;0.90;;
30571;SDS011;17348;50.948;10.696;2023-04-03T12:37:08;5.60;;;1.43;;
30571;SDS011;17348;50.948;10.696;2023-04-03T12:40:24;6.93;;;1.17;;
30571;SDS011;17348;50.948;10.696;2023-04-03T12:43:36;5.93;;;0.97;;
30571;SDS011;17348;50.948;10.696;2023-04-03T12:46:48;5.70;;;1.43;;
30571;SDS011;17348;50.948;10.696;2023-04-03T12:49:52;1.70;;;0.80;;
30571;SDS011;17348;50.948;10.696;2023-04-03T12:52:58;2.47;;;1.30;;
30571;SDS011;17348;50.948;10.696;2023-04-03T12:56:19;2.90;;;1.10;;
30571;SDS011;17348;50.948;10.696;2023-04-03T12:59:24;4.72;;;1.70;;
30571;SDS011;17348;50.948;10.696;2023-04-03T13:02:28;2.27;;;0.83;;
30571;SDS011;17348;50.948;10.696;2023-04-03T13:05:34;2.20;;;1.10;;
30571;SDS011;17348;50.948;10.696;2023-04-03T13:08:38;3.33;;;1.00;;
30571;SDS011;17348;50.948;10.696;2023-04-03T13:11:51;4.83;;;1.10;;
30571;SDS011;17348;50.948;10.696;2023-04-03T13:15:00;5.23;;;1.03;;
30571;SDS011;17348;50.948;10.696;2023-04-03T13:18:04;2.13;;;1.00;;
30571;SDS011;17348;50.948;10.696;2023-04-03T13:21:07;2.70;;;1.40;;
30571;SDS011;17348;50.948;10.696;2023-04-03T13:24:18;11.53;;;1.33;;
30571;SDS011;17348;50.948;10.696;2023-04-03T13:27:20;2.67;;;0.80;;
30571;SDS011;17348;50.948;10.696;2023-04-03T13:30:25;6.10;;;1.23;;
30571;SDS011;17348;50.948;10.696;2023-04-03T13:33:31;7.07;;;1.20;;
30571;SDS011;17348;50.948;10.696;2023-04-03T13:36:38;3.07;;;1.00;;
30571;SDS011;17348;50.948;10.696;2023-04-03T13:39:44;6.03;;;0.90;;
30571;SDS011;17348;50.948;10.696;2023-04-03T13:42:46;6.80;;;1.20;;
30571;SDS011;17348;50.948;10.696;2023-04-03T13:49:31;2.67;;;1.00;;
30571;SDS011;17348;50.948;10.696;2023-04-03T13:52:39;4.27;;;1.00;;
30571;SDS011;17348;50.948;10.696;2023-04-03T13:55:54;5.50;;;1.17;;
30571;SDS011;17348;50.948;10.696;2023-04-03T13:59:00;6.00;;;1.20;;
30571;SDS011;17348;50.948;10.696;2023-04-03T14:02:10;3.17;;;1.30;;
30571;SDS011;17348;50.948;10.696;2023-04-03T14:05:17;7.05;;;1.35;;
30571;SDS011;17348;50.948;10.696;2023-04-03T14:08:21;11.33;;;1.30;;
30571;SDS011;17348;50.948;10.696;2023-04-03T14:11:26;9.67;;;1.10;;
30571;SDS011;17348;50.948;10.696;2023-04-03T14:14:32;4.53;;;1.17;;
30571;SDS011;17348;50.948;10.696;2023-04-03T14:17:36;4.37;;;0.90;;
30571;SDS011;17348;50.948;10.696;2023-04-03T14:20:39;5.90;;;0.83;;
30571;SDS011;17348;50.948;10.696;2023-04-03T14:23:42;11.53;;;1.43;;
30571;SDS011;17348;50.948;10.696;2023-04-03T14:26:46;5.27;;;1.60;;
30571;SDS011;17348;50.948;10.696;2023-04-03T14:29:50;4.57;;;1.20;;
30571;SDS011;17348;50.948;10.696;2023-04-03T14:32:55;4.17;;;0.90;;
30571;SDS011;17348;50.948;10.696;2023-04-03T14:35:57;2.00;;;1.00;;
30571;SDS011;17348;50.948;10.696;2023-04-03T14:39:00;3.57;;;1.17;;
30571;SDS011;17348;50.948;10.696;2023-04-03T14:42:04;2.63;;;1.33;;
30571;SDS011;17348;50.948;10.696;2023-04-03T14:45:08;11.03;;;1.87;;
30571;SDS011;17348;50.948;10.696;2023-04-03T14:48:12;6.17;;;1.30;;
30571;SDS011;17348;50.948;10.696;2023-04-03T14:51:19;8.40;;;1.50;;
30571;SDS011;17348;50.948;10.696;2023-04-03T14:54:22;7.57;;;1.70;;
30571;SDS011;17348;50.948;10.696;2023-04-03T14:57:29;7.43;;;1.80;;
30571;SDS011;17348;50.948;10.696;2023-04-03T15:00:32;3.30;;;0.90;;
30571;SDS011;17348;50.948;10.696;2023-04-03T15:03:34;6.70;;;1.40;;
30571;SDS011;17348;50.948;10.696;2023-04-03T15:06:37;2.40;;;1.33;;
30571;SDS011;17348;50.948;10.696;2023-04-03T15:09:39;3.43;;;1.23;;
30571;SDS011;17348;50.948;10.696;2023-04-03T15:12:43;4.60;;;1.10;;
30571;SDS011;17348;50.948;10.696;2023-04-03T15:15:46;3.60;;;1.30;;
30571;SDS011;17348;50.948;10.696;2023-04-03T15:18:49;3.40;;;1.40;;
30571;SDS011;17348;50.948;10.696;2023-04-03T15:21:52;2.53;;;1.33;;
30571;SDS011;17348;50.948;10.696;2023-04-03T15:24:54;5.40;;;1.60;;
30571;SDS011;17348;50.948;10.696;2023-04-03T15:27:58;10.77;;;2.03;;
30571;SDS011;17348;50.948;10.696;2023-04-03T15:31:01;3.07;;;1.10;;
30571;SDS011;17348;50.948;10.696;2023-04-03T15:34:04;3.27;;;1.53;;
30571;SDS011;17348;50.948;10.696;2023-04-03T15:37:07;4.87;;;1.50;;
30571;SDS011;17348;50.948;10.696;2023-04-03T15:40:10;2.70;;;1.10;;
30571;SDS011;17348;50.948;10.696;2023-04-03T15:43:14;4.10;;;0.90;;
30571;SDS011;17348;50.948;10.696;2023-04-03T15:46:17;5.50;;;1.40;;
30571;SDS011;17348;50.948;10.696;2023-04-03T15:49:19;4.37;;;0.77;;
30571;SDS011;17348;50.948;10.696;2023-04-03T15:52:23;12.60;;;1.83;;
30571;SDS011;17348;50.948;10.696;2023-04-03T15:55:26;2.30;;;1.10;;
30571;SDS011;17348;50.948;10.696;2023-04-03T15:58:31;6.60;;;1.37;;
30571;SDS011;17348;50.948;10.696;2023-04-03T16:01:33;4.40;;;1.37;;
30571;SDS011;17348;50.948;10.696;2023-04-03T16:04:36;5.70;;;1.60;;
30571;SDS011;17348;50.948;10.696;2023-04-03T16:07:38;5.67;;;1.50;;
30571;SDS011;17348;50.948;10.696;2023-04-03T16:10:41;4.20;;;2.23;;
30571;SDS011;17348;50.948;10.696;2023-04-03T16:13:47;2.27;;;0.80;;
30571;SDS011;17348;50.948;10.696;2023-04-03T16:16:49;8.07;;;1.47;;
30571;SDS011;17348;50.948;10.696;2023-04-03T16:19:51;5.67;;;1.67;;
30571;SDS011;17348;50.948;10.696;2023-04-03T16:22:55;6.27;;;1.60;;
30571;SDS011;17348;50.948;10.696;2023-04-03T16:25:59;11.27;;;1.23;;
30571;SDS011;17348;50.948;10.696;2023-04-03T16:29:03;6.33;;;1.70;;
30571;SDS011;17348;50.948;10.696;2023-04-03T16:32:05;5.37;;;1.53;;
30571;SDS011;17348;50.948;10.696;2023-04-03T16:35:09;4.53;;;1.60;;
30571;SDS011;17348;50.948;10.696;2023-04-03T16:38:12;6.07;;;1.77;;
30571;SDS011;17348;50.948;10.696;2023-04-03T16:41:14;6.27;;;1.80;;
30571;SDS011;17348;50.948;10.696;2023-04-03T16:44:18;2.30;;;1.60;;
30571;SDS011;17348;50.948;10.696;2023-04-03T16:47:20;4.67;;;1.77;;
30571;SDS011;17348;50.948;10.696;2023-04-03T16:50:23;6.47;;;1.90;;
30571;SDS011;17348;50.948;10.696;2023-04-03T16:53:26;3.60;;;1.70;;
30571;SDS011;17348;50.948;10.696;2023-04-03T16:56:28;4.30;;;1.47;;
30571;SDS011;17348;50.948;10.696;2023-04-03T16:59:32;4.93;;;1.60;;
30571;SDS011;17348;50.948;10.696;2023-04-03T17:02:35;3.53;;;1.30;;
30571;SDS011;17348;50.948;10.696;2023-04-03T17:05:37;5.73;;;1.63;;
30571;SDS011;17348;50.948;10.696;2023-04-03T17:08:40;9.07;;;1.40;;
30571;SDS011;17348;50.948;10.696;2023-04-03T17:11:42;4.07;;;1.40;;
30571;SDS011;17348;50.948;10.696;2023-04-03T17:14:47;6.43;;;1.43;;
30571;SDS011;17348;50.948;10.696;2023-04-03T17:17:50;7.47;;;1.80;;
30571;SDS011;17348;50.948;10.696;2023-04-03T17:20:53;2.17;;;1.57;;
30571;SDS011;17348;50.948;10.696;2023-04-03T17:23:58;5.70;;;1.67;;
30571;SDS011;17348;50.948;10.696;2023-04-03T17:27:03;6.23;;;1.30;;
30571;SDS011;17348;50.948;10.696;2023-04-03T17:30:08;4.67;;;1.57;;
30571;SDS011;17348;50.948;10.696;2023-04-03T17:33:11;6.13;;;1.93;;
30571;SDS011;17348;50.948;10.696;2023-04-03T17:36:13;8.03;;;1.83;;
30571;SDS011;17348;50.948;10.696;2023-04-03T17:39:16;5.27;;;1.47;;
30571;SDS011;17348;50.948;10.696;2023-04-03T17:42:18;6.40;;;1.57;;
30571;SDS011;17348;50.948;10.696;2023-04-03T17:45:22;5.20;;;1.80;;
30571;SDS011;17348;50.948;10.696;2023-04-03T17:48:25;2.53;;;1.10;;
30571;SDS011;17348;50.948;10.696;2023-04-03T17:51:27;5.40;;;1.83;;
30571;SDS011;17348;50.948;10.696;2023-04-03T17:54:29;6.53;;;1.07;;
30571;SDS011;17348;50.948;10.696;2023-04-03T17:57:32;4.33;;;1.10;;
30571;SDS011;17348;50.948;10.696;2023-04-03T18:00:36;6.23;;;1.70;;
30571;SDS011;17348;50.948;10.696;2023-04-03T18:03:38;3.37;;;1.43;;
30571;SDS011;17348;50.948;10.696;2023-04-03T18:06:41;3.63;;;1.53;;
30571;SDS011;17348;50.948;10.696;2023-04-03T18:09:47;4.33;;;1.33;;
30571;SDS011;17348;50.948;10.696;2023-04-03T18:12:51;4.70;;;1.10;;
30571;SDS011;17348;50.948;10.696;2023-04-03T18:15:55;3.00;;;1.53;;
30571;SDS011;17348;50.948;10.696;2023-04-03T18:18:58;7.13;;;1.90;;
30571;SDS011;17348;50.948;10.696;2023-04-03T18:22:02;8.07;;;1.50;;
30571;SDS011;17348;50.948;10.696;2023-04-03T18:25:09;4.50;;;1.30;;